Time;durP1;ratioP1;P1;durP2;ratioP2;P2;SDS_P1;SDS_P2;PMS_P1;PMS_P2;Temp;Humidity;BMP_temperature;BMP_pressure;BME280_temperature;BME280_humidity;BME280_pressure;Samples;Min_cycle;Max_cycle;Signal;HPM_P1;HPM_P2
2022/08/18 00:03:45;;;;;;;44.25;35.15;;;21.90;99.90;;;;;;12527088;28;20135;-36
2022/08/18 00:10:00;;;;;;;41.78;34.63;;;21.90;99.90;;;;;;12529358;28;20048;-32
2022/08/18 00:16:02;;;;;;;41.05;32.95;;;21.80;99.90;;;;;;12533063;28;20079;-36
2022/08/18 00:22:04;;;;;;;38.53;30.45;;;21.70;99.90;;;;;;12532501;28;20168;-36
2022/08/18 00:28:06;;;;;;;37.72;30.83;;;21.70;99.90;;;;;;12541050;28;20631;-32
2022/08/18 00:34:09;;;;;;;38.88;31.98;;;21.60;99.90;;;;;;12519747;28;20443;-36
2022/08/18 00:40:14;;;;;;;34.22;29.80;;;21.50;99.90;;;;;;12522234;28;20053;-36
2022/08/18 00:46:28;;;;;;;39.65;30.40;;;21.30;99.90;;;;;;12532037;28;20481;-36
2022/08/18 00:52:31;;;;;;;35.95;28.95;;;20.90;99.90;;;;;;12521564;28;20049;-36
2022/08/18 00:58:43;;;;;;;36.20;29.75;;;20.80;99.90;;;;;;12521987;28;20056;-36
2022/08/18 01:05:02;;;;;;;38.53;30.63;;;21.00;99.90;;;;;;12528692;28;20049;-37
2022/08/18 01:11:04;;;;;;;35.58;30.25;;;20.90;99.90;;;;;;12530806;28;20129;-32
2022/08/18 01:23:28;;;;;;;40.60;32.70;;;20.80;99.90;;;;;;12527779;28;20045;-36
2022/08/18 01:29:34;;;;;;;;;;;20.80;99.90;;;;;;12530665;28;20119;-38
2022/08/18 01:35:42;;;;;;;41.95;32.20;;;20.80;99.90;;;;;;12524652;28;20384;-33
2022/08/18 01:41:43;;;;;;;40.40;33.72;;;20.70;99.90;;;;;;12529331;28;20513;-32
2022/08/18 01:47:45;;;;;;;41.17;32.28;;;20.60;99.90;;;;;;12529186;28;20052;-32
2022/08/18 01:53:49;;;;;;;40.63;33.45;;;20.70;99.90;;;;;;12545334;28;20041;-36
2022/08/18 01:59:51;;;;;;;43.38;34.97;;;20.70;99.90;;;;;;12540652;28;20092;-32
2022/08/18 02:05:58;;;;;;;43.80;35.75;;;20.80;99.90;;;;;;12535087;28;20045;-32
2022/08/18 02:12:02;;;;;;;46.97;35.95;;;20.60;99.90;;;;;;12539111;28;20182;-36
2022/08/18 02:18:04;;;;;;;42.22;34.75;;;20.50;99.90;;;;;;12537355;28;20044;-32
2022/08/18 02:24:06;;;;;;;42.63;34.80;;;20.60;99.90;;;;;;12544370;28;20056;-36
2022/08/18 02:30:10;;;;;;;46.20;36.42;;;20.50;99.90;;;;;;12533268;28;20106;-32
2022/08/18 02:36:12;;;;;;;45.30;37.15;;;20.50;99.90;;;;;;12476221;28;20036;-32
2022/08/18 02:42:15;;;;;;;46.13;37.47;;;20.60;99.90;;;;;;12538559;28;20049;-36
2022/08/18 02:48:21;;;;;;;46.72;38.22;;;20.60;99.90;;;;;;12531789;28;20160;-33
2022/08/18 02:54:23;;;;;;;50.75;39.72;;;20.50;99.90;;;;;;12531862;28;20123;-32
2022/08/18 03:00:25;;;;;;;49.33;39.43;;;20.60;99.90;;;;;;12523919;28;20095;-36
2022/08/18 03:06:29;;;;;;;55.65;41.50;;;20.50;99.90;;;;;;12539297;28;20098;-33
2022/08/18 03:12:30;;;;;;;48.65;38.45;;;20.30;99.90;;;;;;12533071;28;20053;-37
2022/08/18 03:18:32;;;;;;;46.38;36.47;;;20.30;99.90;;;;;;12532262;28;20515;-33
2022/08/18 03:24:35;;;;;;;53.92;40.85;;;20.30;99.90;;;;;;12533447;28;20501;-33
2022/08/18 03:30:37;;;;;;;56.33;42.08;;;20.00;99.90;;;;;;12526837;28;20037;-33
2022/08/18 03:36:40;;;;;;;56.10;43.70;;;19.90;99.90;;;;;;12531975;28;20401;-38
2022/08/18 03:42:42;;;;;;;56.58;43.20;;;20.00;99.90;;;;;;12533901;28;20057;-36
2022/08/18 03:48:46;;;;;;;57.10;41.90;;;19.80;99.90;;;;;;12532596;28;20159;-33
2022/08/18 03:54:48;;;;;;;55.83;42.60;;;19.80;99.90;;;;;;12527168;28;20049;-36
2022/08/18 04:00:49;;;;;;;57.88;43.42;;;19.80;99.90;;;;;;12531117;28;20060;-37
2022/08/18 04:07:05;;;;;;;57.70;43.10;;;19.80;99.90;;;;;;12534865;28;20084;-33
2022/08/18 04:13:08;;;;;;;56.50;44.65;;;19.90;99.90;;;;;;12531666;28;20180;-33
2022/08/18 04:19:12;;;;;;;57.03;44.38;;;20.00;99.90;;;;;;12529208;28;20139;-37
2022/08/18 04:25:14;;;;;;;58.15;42.75;;;20.10;99.90;;;;;;12530947;28;20055;-37
2022/08/18 04:31:22;;;;;;;61.08;46.10;;;20.10;99.90;;;;;;12539907;28;20495;-38
2022/08/18 04:37:24;;;;;;;64.55;49.58;;;20.10;99.90;;;;;;12529027;28;20045;-35
2022/08/18 04:43:26;;;;;;;73.38;53.72;;;20.00;99.90;;;;;;12522913;28;20045;-38
2022/08/18 04:49:29;;;;;;;73.20;52.67;;;19.90;99.90;;;;;;12525470;28;20045;-38
2022/08/18 04:55:30;;;;;;;68.87;51.40;;;19.50;99.90;;;;;;12526351;28;20033;-39
2022/08/18 05:01:44;;;;;;;73.30;53.70;;;19.40;99.90;;;;;;12523452;28;20041;-38
2022/08/18 05:07:46;;;;;;;70.85;52.90;;;19.50;99.90;;;;;;12530865;28;20049;-39
2022/08/18 05:13:50;;;;;;;69.85;50.88;;;19.50;99.90;;;;;;12528847;28;20060;-35
2022/08/18 05:19:51;;;;;;;72.47;53.03;;;19.20;99.90;;;;;;12530286;28;20480;-39
2022/08/18 05:26:02;;;;;;;65.90;48.38;;;19.10;99.90;;;;;;12526627;28;20049;-35
2022/08/18 05:32:06;;;;;;;66.20;50.00;;;19.10;99.90;;;;;;12536772;28;20132;-35
2022/08/18 05:38:27;;;;;;;60.05;46.17;;;19.10;99.90;;;;;;12535186;28;20523;-35
2022/08/18 05:44:32;;;;;;;60.63;45.90;;;19.00;99.90;;;;;;12532264;28;20075;-35
2022/08/18 05:50:36;;;;;;;61.45;44.00;;;19.10;99.90;;;;;;12537303;28;20583;-34
2022/08/18 05:56:46;;;;;;;57.63;43.42;;;18.90;99.90;;;;;;12537264;28;20172;-39
2022/08/18 06:03:00;;;;;;;53.67;41.58;;;18.90;99.90;;;;;;12533629;28;20470;-34
2022/08/18 06:09:27;;;;;;;51.17;39.58;;;18.90;99.90;;;;;;12535166;28;20053;-34
2022/08/18 06:15:36;;;;;;;50.55;38.85;;;18.90;99.90;;;;;;12536250;28;20037;-35
2022/08/18 06:22:15;;;;;;;53.00;39.83;;;18.80;99.90;;;;;;12532124;28;20071;-34
2022/08/18 06:28:17;;;;;;;52.45;39.35;;;18.90;99.90;;;;;;12490865;28;20520;-34
2022/08/18 06:34:41;;;;;;;48.92;36.08;;;19.00;99.90;;;;;;12536787;28;20093;-39
2022/08/18 06:40:42;;;;;;;47.80;36.13;;;19.20;99.90;;;;;;12537588;28;20538;-34
2022/08/18 06:47:03;;;;;;;46.03;34.65;;;19.30;99.90;;;;;;12530918;28;20045;-39
2022/08/18 06:53:07;;;;;;;43.45;32.60;;;19.70;99.90;;;;;;12520752;28;20053;-35
2022/08/18 06:59:35;;;;;;;42.22;32.13;;;19.60;99.90;;;;;;12533677;28;20045;-35
2022/08/18 07:05:57;;;;;;;37.17;29.60;;;19.80;99.90;;;;;;12535278;28;20132;-38
2022/08/18 07:12:06;;;;;;;37.03;29.45;;;20.00;99.90;;;;;;12528501;28;20090;-35
2022/08/18 07:18:09;;;;;;;37.80;28.08;;;20.20;99.90;;;;;;12524069;28;20037;-35
2022/08/18 07:24:20;;;;;;;36.17;28.27;;;20.20;99.90;;;;;;12524645;28;20102;-35
2022/08/18 07:30:35;;;;;;;34.30;27.23;;;20.40;99.90;;;;;;12536846;28;20140;-35
2022/08/18 07:37:06;;;;;;;34.75;27.33;;;20.50;99.90;;;;;;12530178;28;20508;-35
2022/08/18 07:43:51;;;;;;;33.97;26.65;;;20.60;99.90;;;;;;12520883;28;20078;-38
2022/08/18 07:49:57;;;;;;;38.80;28.75;;;20.50;99.90;;;;;;12326461;28;20047;-38
2022/08/18 07:56:22;;;;;;;37.58;29.75;;;20.70;99.90;;;;;;12526000;28;20477;-38
2022/08/18 08:02:49;;;;;;;37.97;28.42;;;20.50;99.90;;;;;;12527529;28;20143;-35
2022/08/18 08:09:09;;;;;;;34.47;29.02;;;20.60;99.90;;;;;;12527213;28;20047;-35
2022/08/18 08:15:17;;;;;;;40.25;30.95;;;20.40;99.90;;;;;;12528153;28;20124;-35
2022/08/18 08:21:34;;;;;;;39.75;31.67;;;20.50;99.90;;;;;;12523348;28;20052;-38
2022/08/18 08:27:53;;;;;;;33.67;28.00;;;20.60;99.90;;;;;;12521973;28;20170;-38
2022/08/18 08:34:28;;;;;;;37.17;28.30;;;20.80;99.90;;;;;;12525191;28;20045;-38
2022/08/18 08:40:58;;;;;;;35.13;27.60;;;21.00;99.90;;;;;;12517477;28;20103;-35
2022/08/18 08:47:09;;;;;;;29.83;24.65;;;21.00;99.90;;;;;;12525546;28;20075;-39
2022/08/18 08:53:26;;;;;;;34.05;26.75;;;21.10;99.90;;;;;;12531087;28;20053;-38
2022/08/18 08:59:28;;;;;;;32.17;26.88;;;21.20;99.90;;;;;;12531794;28;20056;-35
2022/08/18 09:05:58;;;;;;;27.73;23.35;;;21.40;99.90;;;;;;12535698;28;20420;-39
2022/08/18 09:12:15;;;;;;;29.15;24.42;;;21.40;99.90;;;;;;12536109;28;20045;-35
2022/08/18 09:18:28;;;;;;;29.50;26.00;;;21.40;99.90;;;;;;12528743;28;20049;-38
2022/08/18 09:24:39;;;;;;;31.50;25.97;;;21.40;99.90;;;;;;12535752;28;20094;-35
2022/08/18 09:30:44;;;;;;;26.88;21.92;;;21.40;99.90;;;;;;12535462;28;20110;-39
2022/08/18 09:37:25;;;;;;;26.27;22.65;;;21.30;99.90;;;;;;12540800;28;20163;-35
2022/08/18 09:43:51;;;;;;;25.48;22.45;;;21.40;99.90;;;;;;12493786;28;20094;-39
2022/08/18 09:49:55;;;;;;;27.92;24.50;;;21.50;99.90;;;;;;12531383;28;20049;-35
2022/08/18 09:55:57;;;;;;;31.48;26.65;;;21.50;99.90;;;;;;12537714;28;20124;-38
2022/08/18 10:02:27;;;;;;;33.42;24.25;;;21.40;99.90;;;;;;12533487;28;20056;-35
2022/08/18 10:08:54;;;;;;;34.20;27.35;;;21.50;99.90;;;;;;12529431;28;20406;-38
2022/08/18 10:15:23;;;;;;;36.25;28.92;;;21.40;99.90;;;;;;12535275;28;20174;-35
2022/08/18 10:22:10;;;;;;;32.75;26.88;;;21.40;99.90;;;;;;12514201;28;20599;-39
2022/08/18 10:28:51;;;;;;;36.95;26.85;;;21.20;99.90;;;;;;12454936;28;20118;-35
2022/08/18 10:34:55;;;;;;;31.65;27.33;;;21.40;99.90;;;;;;12525282;28;20140;-35
2022/08/18 10:40:59;;;;;;;;;;;21.50;99.90;;;;;;12528311;28;20098;-38
2022/08/18 10:47:21;;;;;;;33.60;24.70;;;21.70;99.90;;;;;;12531347;28;20019;-35
2022/08/18 10:53:53;;;;;;;35.08;27.88;;;21.80;99.90;;;;;;12527676;28;20053;-35
2022/08/18 11:00:08;;;;;;;32.45;27.27;;;21.90;99.90;;;;;;12532324;28;20048;-39
2022/08/18 11:06:18;;;;;;;29.13;25.75;;;22.00;99.90;;;;;;12532540;28;20083;-35
2022/08/18 11:13:03;;;;;;;28.65;23.83;;;21.70;99.90;;;;;;12513535;28;20114;-35
2022/08/18 11:19:14;;;;;;;31.35;25.25;;;21.80;99.90;;;;;;12528960;28;20501;-39
2022/08/18 11:25:24;;;;;;;30.33;25.08;;;21.70;99.90;;;;;;12530338;28;20488;-39
2022/08/18 11:31:29;;;;;;;32.22;25.90;;;21.80;99.90;;;;;;12527395;28;20416;-39
2022/08/18 11:37:42;;;;;;;30.33;25.27;;;22.00;99.90;;;;;;12533159;28;20049;-35
2022/08/18 11:43:58;;;;;;;24.93;19.33;;;22.20;99.90;;;;;;12524067;28;20048;-35
2022/08/18 11:50:11;;;;;;;27.60;22.83;;;22.60;99.90;;;;;;12532562;28;20045;-35
2022/08/18 11:56:20;;;;;;;28.27;22.30;;;22.90;99.90;;;;;;12527982;28;20393;-39
2022/08/18 12:02:42;;;;;;;28.08;20.92;;;23.10;99.90;;;;;;12525705;28;20302;-35
2022/08/18 12:09:15;;;;;;;23.10;19.50;;;22.90;99.90;;;;;;12526052;28;20053;-35
2022/08/18 12:15:37;;;;;;;21.70;16.17;;;22.70;99.90;;;;;;12522769;28;20038;-35
2022/08/18 12:21:52;;;;;;;19.15;15.63;;;22.60;99.90;;;;;;12520954;28;20049;-41
2022/08/18 12:27:55;;;;;;;17.95;13.82;;;22.60;99.90;;;;;;12524839;28;20057;-39
2022/08/18 12:33:56;;;;;;;18.63;14.73;;;22.70;99.90;;;;;;12531504;28;20057;-39
2022/08/18 12:40:03;;;;;;;18.88;15.27;;;22.50;99.90;;;;;;12524317;28;20557;-35
2022/08/18 12:46:07;;;;;;;18.50;13.07;;;22.50;99.90;;;;;;12531603;28;20476;-35
2022/08/18 12:52:13;;;;;;;16.85;12.02;;;22.60;99.90;;;;;;12525874;28;20056;-35
2022/08/18 12:58:17;;;;;;;14.43;11.73;;;22.70;99.90;;;;;;12522959;28;20045;-35
2022/08/18 13:04:19;;;;;;;36.00;12.57;;;22.90;99.90;;;;;;12527281;28;20094;-39
2022/08/18 13:10:27;;;;;;;11.98;9.73;;;23.20;99.90;;;;;;12534100;28;20583;-39
2022/08/18 13:16:46;;;;;;;13.70;9.65;;;23.20;99.90;;;;;;12524338;28;20473;-40
2022/08/18 13:22:55;;;;;;;14.43;11.27;;;23.20;99.90;;;;;;12528232;28;20056;-40
2022/08/18 13:29:00;;;;;;;14.32;11.48;;;23.20;99.90;;;;;;12525040;28;20049;-39
2022/08/18 13:35:02;;;;;;;14.10;11.10;;;23.10;99.90;;;;;;12525988;28;20132;-39
2022/08/18 13:41:11;;;;;;;21.13;13.48;;;23.10;99.90;;;;;;12525615;28;20065;-36
2022/08/18 13:47:17;;;;;;;13.75;11.20;;;23.70;99.90;;;;;;12526726;28;20441;-35
2022/08/18 13:53:20;;;;;;;13.65;9.85;;;24.70;99.90;;;;;;12530069;28;20440;-35
2022/08/18 13:59:23;;;;;;;9.98;8.00;;;25.20;99.90;;;;;;12540834;28;20463;-35
2022/08/18 14:05:25;;;;;;;9.73;8.20;;;25.80;99.90;;;;;;12529490;28;20086;-39
2022/08/18 14:11:46;;;;;;;11.40;7.50;;;26.10;99.90;;;;;;12533915;28;20504;-35
2022/08/18 14:17:52;;;;;;;7.97;6.03;;;25.70;99.90;;;;;;12531496;28;20041;-35
2022/08/18 14:30:17;;;;;;;8.32;5.60;;;25.60;99.90;;;;;;12527445;28;20341;-35
2022/08/18 14:36:20;;;;;;;7.38;5.05;;;25.50;99.90;;;;;;12534528;28;20041;-35
2022/08/18 14:42:31;;;;;;;6.70;5.47;;;25.20;99.90;;;;;;12533311;28;20048;-39
2022/08/18 14:48:52;;;;;;;8.50;6.22;;;24.70;99.90;;;;;;12537034;28;20049;-35
2022/08/18 14:54:55;;;;;;;9.65;6.53;;;24.40;99.90;;;;;;12531905;28;20045;-39
2022/08/18 15:01:02;;;;;;;8.40;6.15;;;24.10;99.90;;;;;;12517899;28;20467;-35
2022/08/18 15:07:09;;;;;;;8.10;5.88;;;24.10;99.90;;;;;;12531996;28;20098;-35
2022/08/18 15:13:13;;;;;;;6.75;5.30;;;24.00;99.90;;;;;;12532140;28;20048;-35
2022/08/18 15:19:18;;;;;;;7.90;5.85;;;24.20;99.90;;;;;;12526885;28;20045;-39
2022/08/18 15:25:45;;;;;;;9.10;5.82;;;24.20;99.90;;;;;;12532479;28;20052;-33
2022/08/18 15:31:51;;;;;;;6.93;5.00;;;24.30;99.90;;;;;;12518977;28;20206;-33
2022/08/18 15:37:59;;;;;;;8.00;5.07;;;24.30;99.90;;;;;;12535181;28;20056;-33
2022/08/18 15:44:07;;;;;;;7.60;5.15;;;24.30;99.90;;;;;;12528154;28;20095;-33
2022/08/18 15:50:12;;;;;;;6.68;4.32;;;24.30;99.90;;;;;;12532161;28;20087;-37
2022/08/18 15:56:27;;;;;;;6.65;4.18;;;24.30;99.90;;;;;;12532002;28;20040;-33
2022/08/18 16:02:30;;;;;;;6.10;4.03;;;24.30;99.90;;;;;;12529317;28;20049;-33
2022/08/18 16:08:31;;;;;;;5.40;3.63;;;24.30;99.90;;;;;;12524172;28;20496;-37
2022/08/18 16:14:37;;;;;;;5.57;3.42;;;24.40;99.90;;;;;;12525954;28;20041;-33
2022/08/18 16:20:40;;;;;;;7.28;3.60;;;24.30;99.90;;;;;;12526080;28;20190;-33
2022/08/18 16:26:42;;;;;;;5.40;3.80;;;24.20;99.90;;;;;;12519586;28;20053;-37
2022/08/18 16:32:44;;;;;;;6.93;4.03;;;24.20;99.90;;;;;;12522363;28;20079;-37
2022/08/18 16:38:47;;;;;;;;;;;24.20;99.90;;;;;;12531085;28;20473;-37
2022/08/18 16:44:54;;;;;;;10.23;3.47;;;24.30;99.90;;;;;;12529743;28;20319;-39
2022/08/18 16:50:56;;;;;;;7.53;4.10;;;24.30;99.90;;;;;;12526130;28;20041;-37
2022/08/18 16:56:58;;;;;;;6.57;4.25;;;24.50;99.90;;;;;;12520247;28;20046;-33
2022/08/18 17:09:28;;;;;;;6.55;3.92;;;24.50;99.90;;;;;;12521054;28;20101;-33
2022/08/18 17:15:31;;;;;;;6.80;3.93;;;24.50;99.90;;;;;;12519130;28;20497;-37
2022/08/18 17:21:34;;;;;;;5.18;3.80;;;24.40;99.90;;;;;;12534675;28;20098;-37
2022/08/18 17:27:37;;;;;;;7.03;3.83;;;24.50;99.90;;;;;;12530379;28;20132;-37
2022/08/18 17:33:41;;;;;;;7.00;3.40;;;24.60;99.90;;;;;;12539187;28;20058;-37
2022/08/18 17:40:04;;;;;;;9.00;3.90;;;24.40;99.90;;;;;;12531352;28;20454;-33
2022/08/18 17:46:16;;;;;;;11.03;3.53;;;24.20;99.90;;;;;;12534839;28;20049;-37
2022/08/18 17:52:21;;;;;;;8.27;3.50;;;24.30;99.90;;;;;;12536717;28;20049;-37
2022/08/18 17:58:41;;;;;;;5.38;3.28;;;24.30;99.90;;;;;;12535906;28;20055;-33
2022/08/18 18:04:44;;;;;;;7.45;3.53;;;24.10;99.90;;;;;;12535717;28;20488;-33
2022/08/18 18:10:49;;;;;;;5.78;3.20;;;23.90;99.90;;;;;;12538644;28;20041;-33
2022/08/18 18:17:12;;;;;;;7.50;3.08;;;23.80;99.90;;;;;;12532820;28;20047;-33
2022/08/18 18:23:20;;;;;;;9.82;3.42;;;23.70;99.90;;;;;;12532348;28;20060;-33
2022/08/18 18:29:28;;;;;;;8.60;3.30;;;23.70;99.90;;;;;;12567919;22;20090;-82
2022/08/18 18:35:46;;;;;;;4.90;3.42;;;23.50;99.90;;;;;;12522059;28;20451;-82
2022/08/18 18:42:16;;;;;;;7.90;2.88;;;23.40;99.90;;;;;;12526457;28;20118;-83
2022/08/18 18:48:21;;;;;;;5.88;3.20;;;23.30;99.90;;;;;;12554591;28;20026;-82
2022/08/18 18:55:04;;;;;;;6.93;3.28;;;23.10;99.90;;;;;;12542811;28;20075;-82
2022/08/18 19:01:20;;;;;;;4.72;2.88;;;22.90;99.90;;;;;;12513879;28;20136;-81
2022/08/18 19:07:25;;;;;;;7.20;2.83;;;22.90;99.90;;;;;;12520112;28;20112;-82
2022/08/18 19:13:55;;;;;;;7.32;3.13;;;22.70;99.90;;;;;;12517050;28;20524;-83
2022/08/18 19:20:02;;;;;;;6.20;3.50;;;22.70;99.90;;;;;;12477951;28;20103;-82
2022/08/18 19:26:09;;;;;;;6.93;3.72;;;22.70;99.90;;;;;;12468569;28;20461;-82
2022/08/18 19:32:15;;;;;;;5.55;3.20;;;22.60;99.90;;;;;;12470675;28;20050;-82
2022/08/18 19:38:24;;;;;;;6.88;3.35;;;22.60;99.90;;;;;;12490233;28;20072;-82
2022/08/18 19:44:42;;;;;;;7.63;3.33;;;22.50;99.90;;;;;;12486940;28;20111;-82
2022/08/18 19:51:16;;;;;;;6.30;3.30;;;22.40;99.90;;;;;;12474394;28;20046;-82
2022/08/18 19:57:39;;;;;;;8.23;3.95;;;22.20;99.90;;;;;;12482989;28;20053;-82
2022/08/18 20:03:59;;;;;;;7.20;4.10;;;22.20;99.90;;;;;;12482529;28;20507;-81
2022/08/18 20:10:24;;;;;;;5.82;3.88;;;22.10;99.90;;;;;;12480669;28;20180;-82
2022/08/18 20:16:31;;;;;;;9.23;4.20;;;22.00;99.90;;;;;;12479853;28;20474;-81
2022/08/18 20:22:47;;;;;;;9.57;4.43;;;21.90;99.90;;;;;;12503771;28;20041;-81
2022/08/18 20:28:49;;;;;;;9.48;4.40;;;21.90;99.90;;;;;;12492537;28;20053;-82
2022/08/18 20:34:51;;;;;;;11.35;4.25;;;21.80;99.90;;;;;;12478650;28;20552;-82
2022/08/18 20:40:55;;;;;;;6.13;3.95;;;21.70;99.90;;;;;;12481373;28;20192;-82
2022/08/18 20:47:34;;;;;;;11.02;4.80;;;21.70;99.90;;;;;;12479244;28;20639;-81
2022/08/18 20:53:48;;;;;;;6.20;4.00;;;21.60;99.90;;;;;;12469516;28;20446;-81
2022/08/18 21:00:15;;;;;;;19.20;3.90;;;21.60;99.90;;;;;;12491968;28;20053;-81
2022/08/18 21:06:33;;;;;;;10.48;4.53;;;21.40;99.90;;;;;;12489915;28;20049;-82
2022/08/18 21:12:35;;;;;;;9.00;4.05;;;21.40;99.90;;;;;;12476087;28;20053;-81
2022/08/18 21:18:39;;;;;;;9.20;4.40;;;21.40;99.90;;;;;;12494733;28;20053;-82
2022/08/18 21:24:42;;;;;;;;;;;21.40;99.90;;;;;;12476241;28;20041;-82
2022/08/18 21:30:58;;;;;;;13.52;4.68;;;21.50;99.90;;;;;;12473584;28;19928;-81
2022/08/18 21:37:19;;;;;;;9.35;4.20;;;21.40;99.90;;;;;;12495096;28;20049;-82
2022/08/18 21:43:41;;;;;;;8.73;4.28;;;21.20;99.90;;;;;;12479187;28;20448;-82
2022/08/18 21:50:07;;;;;;;10.80;4.05;;;21.00;99.90;;;;;;12479442;28;20655;-82
2022/08/18 21:56:24;;;;;;;13.43;4.57;;;21.10;99.90;;;;;;12490310;28;20120;-82
2022/08/18 22:02:26;;;;;;;9.85;4.05;;;21.00;99.90;;;;;;12493484;28;20037;-82
2022/08/18 22:08:31;;;;;;;9.15;4.45;;;20.90;99.90;;;;;;12488722;28;20519;-81
2022/08/18 22:14:47;;;;;;;9.07;4.68;;;20.90;99.90;;;;;;12481709;28;20136;-81
2022/08/18 22:20:57;;;;;;;5.85;3.90;;;20.90;99.90;;;;;;12489232;28;20056;-81
2022/08/18 22:26:59;;;;;;;8.32;4.00;;;20.90;99.90;;;;;;12477373;28;20537;-81
2022/08/18 22:33:01;;;;;;;8.48;4.13;;;20.80;99.90;;;;;;12489243;28;20566;-81
2022/08/18 22:39:06;;;;;;;8.00;4.22;;;20.80;99.90;;;;;;12472815;28;20096;-81
2022/08/18 22:45:12;;;;;;;10.43;4.88;;;20.80;99.90;;;;;;12467385;28;20104;-82
2022/08/18 22:51:14;;;;;;;9.25;4.53;;;20.70;99.90;;;;;;12476748;28;20049;-81
2022/08/18 22:57:16;;;;;;;8.45;4.88;;;20.60;99.90;;;;;;12475887;28;20132;-80
2022/08/18 23:03:24;;;;;;;8.02;4.45;;;20.50;99.90;;;;;;12467554;28;20045;-81
2022/08/18 23:09:29;;;;;;;8.85;4.65;;;20.40;99.90;;;;;;12467247;28;20050;-81
2022/08/18 23:22:26;;;;;;;12.43;5.53;;;20.30;99.90;;;;;;12463216;28;20050;-81
2022/08/18 23:28:27;;;;;;;9.03;5.87;;;20.20;99.90;;;;;;12475419;28;20470;-81
2022/08/18 23:34:30;;;;;;;9.98;5.40;;;20.20;99.90;;;;;;12468345;28;20065;-81
2022/08/18 23:40:32;;;;;;;9.27;5.20;;;20.10;99.90;;;;;;12495796;28;20048;-81
2022/08/18 23:46:34;;;;;;;8.73;5.90;;;20.20;99.90;;;;;;12472425;28;20511;-81
2022/08/18 23:52:38;;;;;;;10.43;5.32;;;20.20;99.90;;;;;;12468385;28;20128;-81
2022/08/18 23:58:40;;;;;;;11.48;6.00;;;20.20;99.90;;;;;;12475370;28;20200;-80
